createdAt,value
2022-11-15T00:01:39.580Z,56.90
2022-11-15T00:04:26.348Z,30.60
2022-11-15T00:07:33.276Z,25.10
2022-11-15T00:10:19.492Z,24.70
2022-11-15T00:13:12.380Z,25.00
2022-11-15T00:16:00.912Z,16.90
2022-11-15T00:18:50.651Z,12.30
2022-11-15T00:21:37.699Z,14.40
2022-11-15T00:24:24.251Z,12.20
2022-11-15T00:27:10.882Z,22.50
2022-11-15T00:29:57.518Z,17.40
2022-11-15T00:32:44.158Z,12.90
2022-11-15T00:35:33.953Z,11.50
2022-11-15T00:38:20.604Z,11.40
2022-11-15T00:41:09.887Z,11.70
2022-11-15T00:43:56.665Z,12.10
2022-11-15T00:46:43.195Z,12.30
2022-11-15T00:49:29.987Z,12.40
2022-11-15T00:52:16.582Z,11.20
2022-11-15T00:55:03.337Z,12.60
2022-11-15T00:57:49.946Z,13.30
2022-11-15T01:00:36.836Z,11.60
2022-11-15T01:03:23.501Z,15.60
2022-11-15T01:06:11.151Z,14.00
2022-11-15T01:08:57.980Z,11.10
2022-11-15T01:12:02.544Z,11.70
2022-11-15T01:14:48.966Z,16.60
2022-11-15T01:17:35.780Z,102.00
2022-11-15T01:20:22.431Z,15.30
2022-11-15T01:23:09.467Z,25.50
2022-11-15T01:26:01.374Z,17.20
2022-11-15T01:28:48.118Z,27.40
2022-11-15T01:31:34.675Z,36.90
2022-11-15T01:34:21.313Z,68.70
2022-11-15T01:37:07.944Z,98.50
2022-11-15T01:39:54.626Z,40.40
2022-11-15T01:42:41.404Z,91.40
2022-11-15T01:45:28.040Z,135.40
2022-11-15T01:48:14.956Z,195.60
2022-11-15T01:51:07.852Z,210.60
2022-11-15T01:54:00.118Z,98.70
2022-11-15T01:56:53.325Z,148.40
2022-11-15T01:59:43.175Z,129.70
2022-11-15T02:02:30.016Z,78.70
2022-11-15T02:05:16.655Z,73.30
2022-11-15T02:08:03.099Z,124.60
2022-11-15T02:10:49.842Z,56.30
2022-11-15T02:13:37.854Z,75.70
2022-11-15T02:16:40.879Z,98.50
2022-11-15T02:19:33.467Z,141.80
2022-11-15T02:22:32.232Z,109.50
2022-11-15T02:25:56.542Z,140.80
2022-11-15T02:28:45.856Z,132.40
2022-11-15T02:32:04.362Z,154.40
2022-11-15T02:35:25.293Z,131.00
2022-11-15T02:38:21.010Z,221.80
2022-11-15T02:41:12.535Z,145.00
2022-11-15T02:44:09.168Z,117.60
2022-11-15T02:47:15.055Z,198.90
2022-11-15T02:50:09.305Z,78.80
2022-11-15T02:52:56.773Z,133.50
2022-11-15T02:55:48.461Z,40.10
2022-11-15T02:58:50.140Z,61.80
2022-11-15T03:02:28.108Z,43.20
2022-11-15T03:05:39.883Z,43.50
2022-11-15T03:08:48.947Z,28.70
2022-11-15T03:11:42.498Z,15.40
2022-11-15T03:14:36.056Z,17.40
2022-11-15T03:17:34.039Z,28.20
2022-11-15T03:20:21.047Z,11.40
2022-11-15T03:23:11.285Z,12.50
2022-11-15T03:26:00.536Z,17.90
2022-11-15T03:28:53.455Z,14.70
2022-11-15T03:31:50.337Z,14.00
2022-11-15T03:34:52.837Z,12.50
2022-11-15T03:38:04.462Z,17.50
2022-11-15T03:41:05.136Z,15.20
2022-11-15T03:44:01.095Z,10.40
2022-11-15T03:47:05.527Z,11.00
2022-11-15T03:50:02.251Z,16.20
2022-11-15T03:52:50.535Z,13.20
2022-11-15T03:55:36.817Z,16.90
2022-11-15T03:58:23.650Z,11.40
2022-11-15T04:01:10.688Z,15.10
2022-11-15T04:03:57.373Z,23.60
2022-11-15T04:06:44.042Z,13.20
2022-11-15T04:09:30.645Z,11.00
2022-11-15T04:12:31.754Z,9.40
2022-11-15T04:15:20.914Z,10.20
2022-11-15T04:18:07.336Z,14.10
2022-11-15T04:21:12.701Z,12.90
2022-11-15T04:24:14.146Z,8.80
2022-11-15T04:27:01.468Z,9.30
2022-11-15T04:29:47.908Z,11.20
2022-11-15T04:32:34.591Z,8.90
2022-11-15T04:35:21.120Z,9.30
2022-11-15T04:38:10.014Z,25.70
2022-11-15T04:40:56.363Z,23.20
2022-11-15T04:43:42.830Z,27.40
2022-11-15T04:46:30.851Z,31.10
2022-11-15T04:49:17.521Z,27.00
2022-11-15T04:52:04.338Z,22.80
2022-11-15T04:54:51.054Z,103.40
2022-11-15T04:57:38.639Z,49.00
2022-11-15T05:00:25.045Z,109.70
2022-11-15T05:03:30.770Z,154.10
2022-11-15T05:06:17.695Z,91.20
2022-11-15T05:09:04.591Z,264.00
2022-11-15T05:11:51.167Z,241.60
2022-11-15T05:14:37.454Z,146.60
2022-11-15T05:17:23.939Z,79.40
2022-11-15T05:20:11.326Z,219.30
2022-11-15T05:22:57.909Z,223.30
2022-11-15T05:25:44.548Z,114.80
2022-11-15T05:28:32.053Z,245.30
2022-11-15T05:31:18.480Z,148.10
2022-11-15T05:34:06.285Z,89.50
2022-11-15T05:36:52.928Z,117.50
2022-11-15T05:39:39.619Z,68.80
2022-11-15T05:42:28.672Z,73.20
2022-11-15T05:45:15.694Z,66.70
2022-11-15T05:50:51.499Z,38.20
2022-11-15T05:53:38.420Z,61.10
2022-11-15T05:56:26.262Z,109.80
2022-11-15T05:59:13.018Z,69.20
2022-11-15T06:02:00.207Z,148.00
2022-11-15T06:04:46.755Z,125.80
2022-11-15T06:07:33.416Z,117.60
2022-11-15T06:10:20.019Z,61.30
2022-11-15T06:13:06.606Z,34.50
2022-11-15T06:15:57.462Z,27.20
2022-11-15T06:18:44.086Z,32.80
2022-11-15T06:21:30.988Z,31.70
2022-11-15T06:24:17.632Z,31.30
2022-11-15T06:27:04.529Z,32.10
2022-11-15T06:29:50.890Z,25.60
2022-11-15T06:32:37.658Z,18.20
2022-11-15T06:35:24.323Z,30.70
2022-11-15T06:38:12.136Z,20.00
2022-11-15T06:41:03.856Z,23.30
2022-11-15T06:43:50.417Z,18.20
2022-11-15T06:46:37.194Z,20.40
2022-11-15T06:49:23.948Z,44.10
2022-11-15T06:52:10.573Z,41.70
2022-11-15T06:54:57.255Z,23.20
2022-11-15T06:57:53.473Z,21.40
2022-11-15T07:00:42.428Z,16.60
2022-11-15T07:03:29.850Z,17.40
2022-11-15T07:06:17.075Z,19.20
2022-11-15T07:09:04.412Z,24.40
2022-11-15T07:11:50.841Z,12.30
2022-11-15T07:14:37.676Z,29.60
2022-11-15T07:17:24.031Z,21.70
2022-11-15T07:20:11.933Z,14.20
2022-11-15T07:23:03.081Z,19.00
2022-11-15T07:25:50.356Z,15.60
2022-11-15T07:28:37.437Z,13.10
2022-11-15T07:31:24.590Z,20.90
2022-11-15T07:34:11.318Z,12.30
2022-11-15T07:36:57.858Z,10.50
2022-11-15T07:39:45.123Z,33.30
2022-11-15T07:42:53.237Z,27.50
2022-11-15T07:48:42.858Z,27.30
2022-11-15T07:51:30.906Z,18.40
2022-11-15T07:54:17.705Z,60.20
2022-11-15T07:57:07.513Z,20.70
2022-11-15T07:59:54.852Z,15.60
2022-11-15T08:02:41.382Z,26.00
2022-11-15T08:05:28.386Z,59.80
2022-11-15T08:08:15.245Z,28.10
2022-11-15T08:11:01.997Z,33.00
2022-11-15T08:13:48.410Z,30.70
2022-11-15T08:16:35.271Z,39.30
2022-11-15T08:19:21.744Z,44.00
2022-11-15T08:22:09.010Z,34.40
2022-11-15T08:24:55.399Z,32.40
2022-11-15T08:27:41.695Z,28.10
2022-11-15T08:30:29.246Z,61.90
2022-11-15T08:33:15.897Z,49.60
2022-11-15T08:36:03.199Z,85.60
2022-11-15T08:38:49.693Z,39.40
2022-11-15T08:41:39.026Z,59.60
2022-11-15T08:44:25.487Z,53.20
2022-11-15T08:47:13.133Z,98.90
2022-11-15T08:49:59.631Z,125.00
2022-11-15T08:52:46.098Z,28.10
2022-11-15T08:55:32.855Z,137.80
2022-11-15T08:58:19.286Z,84.90
2022-11-15T09:01:06.451Z,94.00
2022-11-15T09:06:43.188Z,26.20
2022-11-15T09:09:29.962Z,30.50
2022-11-15T09:12:16.378Z,32.70
2022-11-15T09:15:03.959Z,19.30
2022-11-15T09:17:50.329Z,26.10
2022-11-15T09:20:36.825Z,21.90
2022-11-15T09:23:23.869Z,25.50
2022-11-15T09:26:10.278Z,19.20
2022-11-15T09:28:56.951Z,21.80
2022-11-15T09:31:43.873Z,21.30
2022-11-15T09:34:30.268Z,22.20
2022-11-15T09:37:17.012Z,17.50
2022-11-15T09:40:04.321Z,28.50
2022-11-15T09:43:12.918Z,19.80
2022-11-15T09:46:05.097Z,16.70
2022-11-15T09:48:58.779Z,22.80
2022-11-15T09:51:54.387Z,20.70
2022-11-15T09:57:35.972Z,27.70
2022-11-15T10:00:45.442Z,25.20
2022-11-15T10:03:18.394Z,21.70
2022-11-15T10:05:52.914Z,17.80
2022-11-15T10:08:40.032Z,20.30
2022-11-15T10:14:14.525Z,35.80
2022-11-15T10:16:53.539Z,28.90
2022-11-15T10:19:33.381Z,31.90
2022-11-15T10:22:04.356Z,30.70
2022-11-15T10:24:38.311Z,111.80
2022-11-15T10:27:12.934Z,62.20
2022-11-15T10:29:49.096Z,44.60
2022-11-15T10:32:20.254Z,47.90
2022-11-15T10:34:50.734Z,47.50
2022-11-15T10:37:33.120Z,75.90
2022-11-15T10:40:17.883Z,34.20
2022-11-15T10:42:46.528Z,32.20
2022-11-15T10:45:30.793Z,93.30
2022-11-15T10:48:14.127Z,32.70
2022-11-15T10:50:44.949Z,48.40
2022-11-15T10:53:19.087Z,45.80
2022-11-15T10:55:49.554Z,133.40
2022-11-15T10:58:36.096Z,148.20
2022-11-15T11:01:17.132Z,69.30
2022-11-15T11:04:00.225Z,147.90
2022-11-15T11:06:28.791Z,40.30
2022-11-15T11:09:02.777Z,33.60
2022-11-15T11:11:47.197Z,68.40
2022-11-15T11:14:32.048Z,29.30
2022-11-15T11:17:06.276Z,34.90
2022-11-15T11:19:46.139Z,31.60
2022-11-15T11:22:37.002Z,39.20
2022-11-15T11:25:32.638Z,30.30
2022-11-15T11:28:15.971Z,27.70
2022-11-15T11:31:08.986Z,25.90
2022-11-15T11:34:03.954Z,21.80
2022-11-15T11:36:50.459Z,23.00
2022-11-15T11:39:46.138Z,20.40
2022-11-15T11:42:36.123Z,21.30
2022-11-15T11:45:25.570Z,22.70
2022-11-15T11:48:08.675Z,20.30
2022-11-15T11:50:39.111Z,14.40
2022-11-15T11:53:12.344Z,14.80
2022-11-15T11:55:45.794Z,14.90
2022-11-15T11:58:27.740Z,19.50
2022-11-15T12:01:01.332Z,18.10
2022-11-15T12:03:39.403Z,18.90
2022-11-15T12:06:45.138Z,18.60
2022-11-15T12:09:31.361Z,18.30
2022-11-15T12:12:23.323Z,18.50
2022-11-15T12:15:09.683Z,16.70
2022-11-15T12:17:41.124Z,25.10
2022-11-15T12:20:25.102Z,24.60
2022-11-15T12:23:04.910Z,17.80
2022-11-15T12:25:44.034Z,14.60
2022-11-15T12:28:38.385Z,16.40
2022-11-15T12:31:22.133Z,12.80
2022-11-15T12:33:50.940Z,12.60
2022-11-15T12:36:22.057Z,19.60
2022-11-15T12:38:52.745Z,29.40
2022-11-15T12:41:22.274Z,22.60
2022-11-15T12:43:51.169Z,23.40
2022-11-15T12:46:49.479Z,22.90
2022-11-15T12:49:26.506Z,22.40
2022-11-15T12:52:00.719Z,39.90
2022-11-15T12:54:30.459Z,25.30
2022-11-15T12:57:04.149Z,81.70
2022-11-15T13:00:00.549Z,34.30
2022-11-15T13:02:44.620Z,33.50
2022-11-15T13:05:16.101Z,22.20
2022-11-15T13:07:44.184Z,77.20
2022-11-15T13:10:15.019Z,24.50
2022-11-15T13:12:45.681Z,22.10
2022-11-15T13:15:13.983Z,29.30
2022-11-15T13:17:56.194Z,61.30
2022-11-15T13:20:28.418Z,61.80
2022-11-15T13:23:05.691Z,43.50
2022-11-15T13:25:36.767Z,157.50
2022-11-15T13:28:16.713Z,43.30
2022-11-15T13:30:47.761Z,73.50
2022-11-15T13:33:19.229Z,159.40
2022-11-15T13:35:53.931Z,45.90
2022-11-15T13:38:35.041Z,37.90
2022-11-15T13:41:34.071Z,39.70
2022-11-15T13:44:03.506Z,31.70
2022-11-15T13:46:36.214Z,38.60
2022-11-15T13:49:14.022Z,33.10
2022-11-15T13:51:52.051Z,36.70
2022-11-15T13:54:38.683Z,41.40
2022-11-15T13:57:14.195Z,28.00
2022-11-15T14:00:31.092Z,35.10
2022-11-15T14:03:08.347Z,32.10
2022-11-15T14:05:36.628Z,20.30
2022-11-15T14:08:14.143Z,34.40
2022-11-15T14:10:42.336Z,32.10
2022-11-15T14:13:29.544Z,49.70
2022-11-15T14:16:37.825Z,21.90
2022-11-15T14:19:07.511Z,27.60
2022-11-15T14:21:35.488Z,33.10
2022-11-15T14:24:22.297Z,23.30
2022-11-15T14:26:50.273Z,66.20
2022-11-15T14:29:29.495Z,24.20
2022-11-15T14:32:15.564Z,28.80
2022-11-15T14:34:44.580Z,29.90
2022-11-15T14:37:24.678Z,26.60
2022-11-15T14:39:53.746Z,16.90
2022-11-15T14:42:23.708Z,42.00
2022-11-15T14:44:52.461Z,34.10
2022-11-15T14:47:20.587Z,26.10
2022-11-15T14:49:48.649Z,17.30
2022-11-15T14:52:32.168Z,22.50
2022-11-15T14:55:03.489Z,17.50
2022-11-15T14:57:32.015Z,73.00
2022-11-15T14:59:59.956Z,40.80
2022-11-15T15:02:42.586Z,17.60
2022-11-15T15:05:22.876Z,18.80
2022-11-15T15:07:54.118Z,21.30
2022-11-15T15:10:40.534Z,29.60
2022-11-15T15:13:27.120Z,41.60
2022-11-15T15:15:55.267Z,57.70
2022-11-15T15:18:23.146Z,56.50
2022-11-15T15:21:01.165Z,55.80
2022-11-15T15:23:32.052Z,51.90
2022-11-15T15:26:00.353Z,67.30
2022-11-15T15:28:33.071Z,59.10
2022-11-15T15:31:03.395Z,43.80
2022-11-15T15:33:31.736Z,65.10
2022-11-15T15:36:00.373Z,116.90
2022-11-15T15:38:28.511Z,51.70
2022-11-15T15:40:56.675Z,83.80
2022-11-15T15:43:24.717Z,49.00
2022-11-15T15:45:52.684Z,63.90
2022-11-15T15:48:20.626Z,80.30
2022-11-15T15:50:50.183Z,35.80
2022-11-15T15:53:18.403Z,34.40
2022-11-15T15:55:46.482Z,35.30
2022-11-15T15:58:14.376Z,32.70
2022-11-15T16:00:42.376Z,48.10
2022-11-15T16:03:10.470Z,71.10
2022-11-15T16:05:38.517Z,58.10
2022-11-15T16:08:06.554Z,65.30
2022-11-15T16:10:35.549Z,53.40
2022-11-15T16:13:04.099Z,35.20
2022-11-15T16:15:32.768Z,45.00
2022-11-15T16:18:02.299Z,29.10
2022-11-15T16:20:43.605Z,27.70
2022-11-15T16:23:18.083Z,26.20
2022-11-15T16:25:50.669Z,47.00
2022-11-15T16:28:21.828Z,20.10
2022-11-15T16:30:59.707Z,22.30
2022-11-15T16:33:27.745Z,15.10
2022-11-15T16:35:55.767Z,17.30
2022-11-15T16:38:23.963Z,13.00
2022-11-15T16:40:51.848Z,21.20
2022-11-15T16:43:19.998Z,15.70
2022-11-15T16:45:49.054Z,13.50
2022-11-15T16:48:26.356Z,15.40
2022-11-15T16:50:59.336Z,13.70
2022-11-15T16:53:28.223Z,17.00
2022-11-15T16:55:56.488Z,16.40
2022-11-15T16:58:25.174Z,22.90
2022-11-15T17:00:55.161Z,17.10
2022-11-15T17:03:24.477Z,20.30
2022-11-15T17:05:53.053Z,16.70
2022-11-15T17:08:22.166Z,16.30
2022-11-15T17:10:51.041Z,20.50
2022-11-15T17:13:19.076Z,14.60
2022-11-15T17:15:47.191Z,15.20
2022-11-15T17:18:15.814Z,14.60
2022-11-15T17:20:44.491Z,25.50
2022-11-15T17:23:14.774Z,18.00
2022-11-15T17:25:43.308Z,14.50
2022-11-15T17:28:11.444Z,21.70
2022-11-15T17:30:43.443Z,18.90
2022-11-15T17:33:11.534Z,19.90
2022-11-15T17:35:39.464Z,21.70
2022-11-15T17:38:07.328Z,19.20
2022-11-15T17:40:35.347Z,17.70
2022-11-15T17:43:05.885Z,31.40
2022-11-15T17:45:34.229Z,21.10
2022-11-15T17:48:02.171Z,22.00
2022-11-15T17:50:30.078Z,26.10
2022-11-15T17:53:00.373Z,28.20
2022-11-15T17:55:28.285Z,23.20
2022-11-15T17:57:56.199Z,27.60
2022-11-15T18:00:24.165Z,25.10
2022-11-15T18:02:52.121Z,29.40
2022-11-15T18:05:20.053Z,35.70
2022-11-15T18:07:47.987Z,30.70
2022-11-15T18:10:15.995Z,31.60
2022-11-15T18:12:43.893Z,30.90
2022-11-15T18:15:11.860Z,39.70
2022-11-15T18:17:39.765Z,63.50
2022-11-15T18:20:08.391Z,69.30
2022-11-15T18:22:36.404Z,117.10
2022-11-15T18:25:05.274Z,145.80
2022-11-15T18:27:33.338Z,202.80
2022-11-15T18:30:01.179Z,164.20
2022-11-15T18:32:29.276Z,118.10
2022-11-15T18:34:57.165Z,190.00
2022-11-15T18:37:25.491Z,83.40
2022-11-15T18:39:54.280Z,68.10
2022-11-15T18:42:22.287Z,65.30
2022-11-15T18:44:50.288Z,66.00
2022-11-15T18:47:18.116Z,59.80
2022-11-15T18:49:46.019Z,76.90
2022-11-15T18:52:13.992Z,57.90
2022-11-15T18:54:41.975Z,52.60
2022-11-15T18:57:09.898Z,64.20
2022-11-15T18:59:38.535Z,59.70
2022-11-15T19:02:06.534Z,64.30
2022-11-15T19:04:34.515Z,64.10
2022-11-15T19:07:02.553Z,65.50
2022-11-15T19:09:32.972Z,69.30
2022-11-15T19:12:01.147Z,67.00
2022-11-15T19:14:29.552Z,62.00
2022-11-15T19:16:57.584Z,63.60
2022-11-15T19:19:28.519Z,68.50
2022-11-15T19:21:57.702Z,58.90
2022-11-15T19:24:27.357Z,56.30
2022-11-15T19:26:55.524Z,51.90
2022-11-15T19:29:23.477Z,54.60
2022-11-15T19:31:51.480Z,49.20
2022-11-15T19:34:19.589Z,47.70
2022-11-15T19:36:47.621Z,48.10
2022-11-15T19:39:18.179Z,50.30
2022-11-15T19:41:48.631Z,55.50
2022-11-15T19:44:16.667Z,54.60
2022-11-15T19:46:44.639Z,52.50
2022-11-15T19:49:12.777Z,51.60
2022-11-15T19:51:42.744Z,55.00
2022-11-15T19:54:11.691Z,54.70
2022-11-15T19:56:42.520Z,54.30
2022-11-15T19:59:12.081Z,52.30
2022-11-15T20:01:40.479Z,56.40
2022-11-15T20:04:10.317Z,55.20
2022-11-15T20:06:43.136Z,63.40
2022-11-15T20:09:16.694Z,56.40
2022-11-15T20:11:45.012Z,54.70
2022-11-15T20:14:14.453Z,58.70
2022-11-15T20:16:42.726Z,57.30
2022-11-15T20:19:12.550Z,57.00
2022-11-15T20:21:40.778Z,62.70
2022-11-15T20:24:09.536Z,61.10
2022-11-15T20:26:37.642Z,58.60
2022-11-15T20:29:06.907Z,54.10
2022-11-15T20:31:35.121Z,61.40
2022-11-15T20:34:03.101Z,56.10
2022-11-15T20:36:31.179Z,52.70
2022-11-15T20:38:59.749Z,60.20
2022-11-15T20:41:28.311Z,71.30
2022-11-15T20:43:56.477Z,59.90
2022-11-15T20:46:24.408Z,53.50
2022-11-15T20:48:52.386Z,44.20
2022-11-15T20:51:20.929Z,48.90
2022-11-15T20:53:49.346Z,47.00
2022-11-15T20:56:21.902Z,45.90
2022-11-15T20:58:50.718Z,41.70
2022-11-15T21:01:23.928Z,43.90
2022-11-15T21:03:53.617Z,42.70
2022-11-15T21:06:23.087Z,40.50
2022-11-15T21:09:11.282Z,41.80
2022-11-15T21:11:58.476Z,38.50
2022-11-15T21:14:26.530Z,35.80
2022-11-15T21:16:54.518Z,35.60
2022-11-15T21:19:28.110Z,36.20
2022-11-15T21:22:01.575Z,33.00
2022-11-15T21:24:30.232Z,33.20
2022-11-15T21:26:59.099Z,39.50
2022-11-15T21:29:28.710Z,37.40
2022-11-15T21:31:57.360Z,33.80
2022-11-15T21:34:25.394Z,38.80
2022-11-15T21:36:53.273Z,35.40
2022-11-15T21:39:21.332Z,35.80
2022-11-15T21:41:49.306Z,33.80
2022-11-15T21:44:17.379Z,37.20
2022-11-15T21:46:45.251Z,35.60
2022-11-15T21:49:13.360Z,38.40
2022-11-15T21:51:41.865Z,40.50
2022-11-15T21:54:09.925Z,38.60
2022-11-15T21:56:37.995Z,38.90
2022-11-15T21:59:06.036Z,36.90
2022-11-15T22:01:52.567Z,38.40
2022-11-15T22:04:21.635Z,36.70
2022-11-15T22:06:50.988Z,56.10
2022-11-15T22:09:18.959Z,68.10
2022-11-15T22:11:46.840Z,53.70
2022-11-15T22:14:14.933Z,117.30
2022-11-15T22:16:42.746Z,57.90
2022-11-15T22:19:10.674Z,44.00
2022-11-15T22:21:40.034Z,50.60
2022-11-15T22:24:08.309Z,60.90
2022-11-15T22:26:36.366Z,61.40
2022-11-15T22:29:04.643Z,65.20
2022-11-15T22:31:32.649Z,157.50
2022-11-15T22:34:00.803Z,211.40
2022-11-15T22:36:42.447Z,58.00
2022-11-15T22:39:15.495Z,124.80
2022-11-15T22:41:43.633Z,174.00
2022-11-15T22:44:11.729Z,50.70
2022-11-15T22:46:39.670Z,253.10
2022-11-15T22:49:09.276Z,204.80
2022-11-15T22:51:39.142Z,259.20
2022-11-15T22:54:07.849Z,418.20
2022-11-15T22:56:35.881Z,223.70
2022-11-15T22:59:03.850Z,274.50
2022-11-15T23:01:31.878Z,246.80
2022-11-15T23:03:59.915Z,149.20
2022-11-15T23:06:28.072Z,50.80
2022-11-15T23:08:56.173Z,127.10
2022-11-15T23:11:42.821Z,66.00
2022-11-15T23:14:10.902Z,54.60
2022-11-15T23:16:39.873Z,94.50
2022-11-15T23:19:10.481Z,77.90
2022-11-15T23:22:05.066Z,73.90
2022-11-15T23:24:33.916Z,45.30
2022-11-15T23:27:06.470Z,48.80
2022-11-15T23:29:56.150Z,49.10
2022-11-15T23:32:42.880Z,45.80
2022-11-15T23:35:10.963Z,61.50
2022-11-15T23:37:38.972Z,60.20
2022-11-15T23:40:08.224Z,69.10
2022-11-15T23:42:36.743Z,39.00
2022-11-15T23:45:05.242Z,45.40
2022-11-15T23:47:33.240Z,37.80
2022-11-15T23:50:01.225Z,44.20
2022-11-15T23:52:29.241Z,34.10
2022-11-15T23:54:57.282Z,32.40
2022-11-15T23:57:25.348Z,30.50
2022-11-15T23:59:53.722Z,31.90
